Flight Track Log - Related Links

Times and Time Zones

All times are in EDT time to prevent confusion due to time zone crossing. See the EJM53 flight status page for this flight to view local times or setup timezone preferences in your user account.

Time Position Orientation Groundspeed Altitude Reporting Facility
EDT Latitude Longitude Course Direction KTS MPH feet Rate Location/Type
Sat 08:47:47 AM 42.4667 -71.3167 115° Southeast 177 204 1,200  Level KA90
Sat 08:48:59 AM 42.4167 -71.3833 225° Southwest 218 251 3,600 2,095 Climbing KA90
Sat 08:49:53 AM 42.3667 -71.3667 166° South 218 251 5,600 2,368 Climbing KA90
Sat 08:50:53 AM 42.3167 -71.3333 154° Southeast 255 293 8,100 1,650 Climbing KA90
Sat 08:51:53 AM 42.2500 -71.2500 137° Southeast 316 364 8,900 400 Climbing KA90
Sat 08:52:53 AM 42.1833 -71.1667 137° Southeast 322 371 8,900  Level KA90
Sat 08:53:00 AM 42.2198 -70.5992 115° Southeast  Level FlightAware Approximate
Sat 08:54:00 AM 42.1049 -71.0717 138° Southeast  Level Estimated
Sat 09:01:00 AM 41.6119 -70.4817 138° Southeast  Level Estimated
Sat 09:02:00 AM 41.5412 -70.3981 138° Southeast  Level Estimated
Sat 09:03:00 AM 41.4704 -70.3148 139° Southeast  Level Estimated
Sat 09:04:00 AM 41.3996 -70.2316 139° Southeast  Level Estimated
Sat 09:05:00 AM 41.3287 -70.1486 139° Southeast  Level Estimated
Sat 09:06:00 AM 41.2578 -70.0658 139° Southeast  Level Estimated
Sat 09:07:00 AM 41.2531 -70.0603 139° Southeast  Level Estimated
Sat 09:08:00 AM 41.2531 -70.0603 72° East  Level Estimated
Sat 09:09:00 AM 41.2531 -70.0603 72° East  Level Estimated
Sat 09:10:00 AM 41.2531 -70.0603 72° East  Level Estimated
Sat 09:11:00 AM 41.2531 -70.0603 72° East  Level Estimated
Sat 09:12:00 AM 41.2531 -70.0603 72° East  Level Estimated
Sat 09:13:00 AM 41.2531 -70.0603 72° East  Level Estimated
Sat 09:14:00 AM 41.2531 -70.0603 72° East  Level Estimated
Sat 09:15:00 AM 41.2531 -70.0603 72° East  Level Estimated
Sat 09:16:00 AM 41.2531 -70.0603 72° East  Level Estimated
Sat 09:17:00 AM 41.2531 -70.0603 72° East  Level Estimated

Login

Don't have an account? Register now (free) for customized features, flight alerts, and more!